Time;durP1;ratioP1;P1;durP2;ratioP2;P2;SDS_P1;SDS_P2;PMS_P1;PMS_P2;Temp;Humidity;BMP_temperature;BMP_pressure;BME280_temperature;BME280_humidity;BME280_pressure;Samples;Min_cycle;Max_cycle;Signal;HPM_P1;HPM_P2
2022/08/30 00:02:59;;;;;;;5.60;3.50;;;17.10;99.90;;;16.80;100.00;97454.16;4950072;28;20069;-51
2022/08/30 00:05:27;;;;;;;5.20;3.40;;;17.00;99.90;;;16.88;100.00;97467.03;4955486;28;20049;-51
2022/08/30 00:07:53;;;;;;;6.43;3.85;;;17.00;99.90;;;16.86;100.00;97468.94;4948744;28;20043;-49
2022/08/30 00:10:19;;;;;;;8.32;4.20;;;17.00;99.90;;;16.83;100.00;97470.88;4942999;28;20880;-49
2022/08/30 00:12:45;;;;;;;4.65;3.70;;;16.90;99.90;;;16.80;100.00;97469.28;4942501;28;20027;-50
2022/08/30 00:15:12;;;;;;;6.22;3.60;;;16.90;99.90;;;16.75;100.00;97466.88;4940061;28;20041;-49
2022/08/30 00:17:39;;;;;;;5.10;4.13;;;16.90;99.90;;;16.72;100.00;97460.88;4941872;28;20116;-48
2022/08/30 00:20:09;;;;;;;5.93;3.78;;;16.80;99.90;;;16.70;100.00;97465.44;4942766;28;20384;-47
2022/08/30 00:22:35;;;;;;;5.70;3.90;;;16.80;99.90;;;16.65;100.00;97475.53;4944032;28;20332;-49
2022/08/30 00:25:02;;;;;;;5.90;4.20;;;16.80;99.90;;;16.60;100.00;97468.69;4940333;28;20097;-50
2022/08/30 00:27:29;;;;;;;4.68;3.80;;;16.70;99.90;;;16.58;100.00;97481.22;4945039;28;20031;-50
2022/08/30 00:29:55;;;;;;;8.02;4.00;;;16.70;99.90;;;16.53;100.00;97483.31;4943708;28;20070;-51
2022/08/30 00:32:22;;;;;;;5.07;3.63;;;16.70;99.90;;;16.50;100.00;97477.31;4937812;28;20050;-50
2022/08/30 00:34:50;;;;;;;5.55;4.00;;;16.60;99.90;;;16.50;100.00;97482.63;4937812;28;20347;-51
2022/08/30 00:37:16;;;;;;;6.22;4.13;;;16.60;99.90;;;16.47;100.00;97477.47;4934978;28;20043;-47
2022/08/30 00:39:42;;;;;;;4.50;3.70;;;16.60;99.90;;;16.33;100.00;97463.19;4936270;28;20189;-51
2022/08/30 00:42:09;;;;;;;5.25;4.18;;;16.60;99.90;;;16.43;100.00;97474.16;4921601;28;20550;-49
2022/08/30 00:44:35;;;;;;;8.85;3.63;;;16.60;99.90;;;16.47;100.00;97477.47;4924779;28;20067;-50
2022/08/30 00:47:01;;;;;;;5.72;3.55;;;16.60;99.90;;;16.46;100.00;97470.47;4939509;28;20791;-48
2022/08/30 00:49:28;;;;;;;4.57;3.67;;;16.60;99.90;;;16.47;100.00;97465.03;4925884;28;20035;-50
2022/08/30 00:51:55;;;;;;;6.07;3.70;;;16.60;99.90;;;16.48;100.00;97472.06;4957878;28;20026;-50
2022/08/30 00:54:22;;;;;;;6.60;3.92;;;16.60;99.90;;;16.45;100.00;97474.91;4957507;28;20022;-50
2022/08/30 00:56:49;;;;;;;7.40;4.10;;;16.60;99.90;;;16.44;100.00;97470.56;4951965;28;20133;-50
2022/08/30 00:59:15;;;;;;;6.93;3.88;;;16.60;99.90;;;16.41;100.00;97473.38;4942565;28;20170;-50
2022/08/30 01:01:41;;;;;;;6.97;4.07;;;16.60;99.90;;;16.39;100.00;97469.97;4937954;28;20094;-50
2022/08/30 01:04:08;;;;;;;5.90;3.67;;;16.50;99.90;;;16.36;100.00;97470.97;4944897;28;20261;-47
2022/08/30 01:06:35;;;;;;;5.40;3.55;;;16.50;99.90;;;16.36;100.00;97475.47;4949449;28;20030;-49
2022/08/30 01:09:03;;;;;;;4.20;3.30;;;16.50;99.90;;;16.34;100.00;97477.34;4954399;28;20434;-50
2022/08/30 01:11:33;;;;;;;4.20;3.40;;;16.50;99.90;;;16.35;100.00;97479.09;4933626;28;20053;-47
2022/08/30 01:14:01;;;;;;;5.05;3.60;;;16.50;99.90;;;16.33;100.00;97486.28;4936252;28;20027;-50
2022/08/30 01:16:31;;;;;;;5.28;4.10;;;16.40;99.90;;;16.32;100.00;97481.91;4950171;28;20046;-50
2022/08/30 01:18:58;;;;;;;5.03;4.05;;;16.40;99.90;;;16.27;100.00;97479.50;4923837;28;20141;-50
2022/08/30 01:21:37;;;;;;;5.97;3.72;;;16.40;99.90;;;16.24;100.00;97474.41;4942819;28;20128;-47
2022/08/30 01:24:04;;;;;;;6.28;4.20;;;16.40;99.90;;;16.20;100.00;97468.41;4925178;28;20042;-47
2022/08/30 01:26:31;;;;;;;6.28;3.90;;;16.30;99.90;;;16.15;100.00;97470.47;4939743;28;21104;-47
2022/08/30 01:29:04;;;;;;;5.93;4.32;;;16.30;99.90;;;16.10;100.00;97472.53;4933975;28;20091;-47
2022/08/30 01:31:31;;;;;;;6.00;4.03;;;16.30;99.90;;;16.09;100.00;97465.47;4945042;28;20223;-49
2022/08/30 01:33:57;;;;;;;5.85;4.20;;;16.30;99.90;;;16.02;100.00;97458.81;4943427;28;20189;-49
2022/08/30 01:36:23;;;;;;;4.93;3.67;;;16.30;99.90;;;16.00;100.00;97458.88;4943345;28;20031;-48
2022/08/30 01:38:53;;;;;;;5.30;3.70;;;16.20;99.90;;;16.05;100.00;97471.09;4944131;28;20506;-47
2022/08/30 01:41:23;;;;;;;8.13;4.50;;;16.20;99.90;;;16.05;100.00;97466.63;4948794;28;20039;-49
2022/08/30 01:43:51;;;;;;;5.20;4.00;;;16.20;99.90;;;16.07;100.00;97467.38;4949743;28;20047;-47
2022/08/30 01:46:23;;;;;;;6.63;3.88;;;16.20;99.90;;;16.08;100.00;97477.09;4946224;28;20118;-50
2022/08/30 01:48:49;;;;;;;4.30;3.88;;;16.20;99.90;;;16.05;100.00;97477.25;4947098;28;20042;-50
2022/08/30 01:51:14;;;;;;;5.25;3.97;;;16.20;99.90;;;16.01;100.00;97479.25;4930511;28;20171;-50
2022/08/30 01:53:43;;;;;;;4.80;3.80;;;16.20;99.90;;;15.99;100.00;97485.59;4948685;28;20061;-47
2022/08/30 01:56:09;;;;;;;3.90;3.40;;;16.10;99.90;;;15.92;100.00;97476.25;4949439;28;20035;-45
2022/08/30 01:58:36;;;;;;;6.18;4.50;;;16.10;99.90;;;15.94;100.00;97485.00;4950606;28;20082;-48
2022/08/30 02:01:11;;;;;;;5.45;4.10;;;16.10;99.90;;;15.91;100.00;97486.03;4951030;28;20126;-50
2022/08/30 02:03:38;;;;;;;6.85;4.10;;;16.10;99.90;;;15.88;100.00;97486.22;4945026;28;20034;-48
2022/08/30 02:06:12;;;;;;;6.72;4.38;;;16.00;99.90;;;15.87;100.00;97486.31;4952988;28;20039;-46
2022/08/30 02:08:39;;;;;;;5.72;4.30;;;16.00;99.90;;;15.82;100.00;97487.41;4954149;28;20408;-50
2022/08/30 02:11:06;;;;;;;6.25;3.88;;;16.00;99.90;;;15.78;100.00;97485.88;4938518;28;20101;-49
2022/08/30 02:13:32;;;;;;;4.65;3.72;;;15.90;99.90;;;15.77;100.00;97484.16;4977359;23;20054;-47
2022/08/30 02:15:58;;;;;;;6.65;3.80;;;16.00;99.90;;;15.76;100.00;97479.78;4977061;28;20083;-43
2022/08/30 02:18:26;;;;;;;5.55;3.60;;;15.90;99.90;;;15.75;100.00;97475.41;4982169;28;20041;-43
2022/08/30 02:20:52;;;;;;;5.85;4.35;;;15.90;99.90;;;15.76;100.00;97478.94;4978487;28;20036;-44
2022/08/30 02:23:18;;;;;;;6.82;4.05;;;15.90;99.90;;;15.75;100.00;97464.75;4976398;28;20030;-44
2022/08/30 02:25:44;;;;;;;5.05;4.22;;;15.90;99.90;;;15.74;100.00;97478.09;4957137;28;20176;-43
2022/08/30 02:28:10;;;;;;;5.75;4.18;;;15.90;99.90;;;15.70;100.00;97471.25;4958589;28;20502;-44
2022/08/30 02:30:36;;;;;;;4.97;3.97;;;15.90;99.90;;;15.52;100.00;97441.25;4961909;28;20088;-47
2022/08/30 02:33:03;;;;;;;5.75;4.53;;;15.80;99.90;;;15.63;100.00;97460.09;4959289;28;20054;-44
2022/08/30 02:35:28;;;;;;;6.60;4.53;;;15.80;99.90;;;15.64;100.00;97461.81;4962826;28;20034;-44
2022/08/30 02:37:54;;;;;;;7.10;4.57;;;15.80;99.90;;;15.62;100.00;97463.72;4965088;28;20038;-46
2022/08/30 02:40:21;;;;;;;7.25;4.82;;;15.80;99.90;;;15.60;100.00;97463.81;4961420;28;20786;-45
2022/08/30 02:42:47;;;;;;;6.35;4.95;;;15.80;99.90;;;15.56;100.00;97458.72;4959260;28;20045;-44
2022/08/30 02:45:14;;;;;;;7.10;4.20;;;15.70;99.90;;;15.57;100.00;97460.47;4959050;28;20106;-46
2022/08/30 02:47:41;;;;;;;6.18;4.82;;;15.70;99.90;;;15.55;100.00;97457.88;4959085;28;20046;-47
2022/08/30 02:50:08;;;;;;;5.70;4.43;;;15.70;99.90;;;15.54;100.00;97460.63;4960698;28;20084;-46
2022/08/30 02:52:36;;;;;;;5.93;4.47;;;15.70;99.90;;;15.55;100.00;97462.34;4962728;28;21160;-44
2022/08/30 02:55:05;;;;;;;6.07;4.60;;;15.70;99.90;;;15.55;100.00;97463.19;4963596;28;20049;-46
2022/08/30 02:57:31;;;;;;;6.10;4.22;;;15.70;99.90;;;15.56;100.00;97459.59;4964436;28;20533;-47
2022/08/30 02:59:57;;;;;;;6.97;4.55;;;15.70;99.90;;;15.60;100.00;97455.81;4964688;28;20062;-44
2022/08/30 03:02:23;;;;;;;5.97;4.32;;;15.80;99.90;;;15.64;100.00;97453.84;4956122;28;20129;-47
2022/08/30 03:04:49;;;;;;;6.10;3.83;;;15.80;99.90;;;15.67;100.00;97451.03;4964866;28;20035;-46
2022/08/30 03:07:15;;;;;;;6.75;4.35;;;15.80;99.90;;;15.66;100.00;97441.31;4962943;28;20059;-47
2022/08/30 03:09:40;;;;;;;6.90;4.65;;;15.80;99.90;;;15.63;100.00;97439.72;4967061;28;20026;-45
2022/08/30 03:12:08;;;;;;;6.22;4.45;;;15.80;99.90;;;15.62;100.00;97437.13;4966616;28;20027;-47
2022/08/30 03:14:37;;;;;;;5.05;4.05;;;15.80;99.90;;;15.61;100.00;97444.25;4961703;28;20169;-47
2022/08/30 03:17:05;;;;;;;6.97;4.25;;;15.80;99.90;;;15.56;100.00;97432.16;4966999;28;20407;-45
2022/08/30 03:19:33;;;;;;;4.72;3.88;;;15.80;99.90;;;15.60;100.00;97442.53;4962075;28;20121;-46
2022/08/30 03:21:59;;;;;;;6.30;4.13;;;15.80;99.90;;;15.52;100.00;97436.78;4971106;28;20034;-46
2022/08/30 03:24:24;;;;;;;6.82;4.30;;;15.70;99.90;;;15.55;100.00;97435.78;4986629;28;20521;-43
2022/08/30 03:26:51;;;;;;;7.90;4.40;;;15.70;99.90;;;15.53;100.00;97429.69;4967161;28;20046;-44
2022/08/30 03:29:17;;;;;;;4.97;4.45;;;15.70;99.90;;;15.49;100.00;97430.78;4962646;28;20172;-46
2022/08/30 03:31:42;;;;;;;7.57;4.88;;;15.70;99.90;;;15.45;100.00;97430.97;4964291;28;20332;-46
2022/08/30 03:34:09;;;;;;;6.22;4.50;;;15.70;99.90;;;15.38;100.00;97426.06;4970406;28;20046;-46
2022/08/30 03:36:37;;;;;;;6.65;4.55;;;15.60;99.90;;;15.43;100.00;97439.97;4961174;28;20050;-46
2022/08/30 03:39:05;;;;;;;6.45;4.68;;;15.60;99.90;;;15.43;100.00;97443.50;4963615;28;20380;-45
2022/08/30 03:41:32;;;;;;;6.22;4.28;;;15.60;99.90;;;15.40;100.00;97430.38;4965636;28;20035;-46
2022/08/30 03:43:59;;;;;;;5.05;4.45;;;15.50;99.90;;;15.41;100.00;97428.56;4960505;28;20030;-44
2022/08/30 03:46:25;;;;;;;6.18;4.50;;;15.60;99.90;;;15.36;100.00;97434.16;4960112;28;20121;-45
2022/08/30 03:48:54;;;;;;;5.72;3.70;;;15.60;99.90;;;15.38;100.00;97424.28;4963331;28;20310;-45
2022/08/30 03:51:24;;;;;;;5.80;4.35;;;15.60;99.90;;;15.34;100.00;97429.84;4960746;28;20050;-46
2022/08/30 03:53:49;;;;;;;6.15;4.78;;;15.50;99.90;;;15.30;100.00;97429.16;4960825;28;20041;-46
2022/08/30 03:56:17;;;;;;;5.85;4.57;;;15.50;99.90;;;15.24;100.00;97433.03;4960560;28;20030;-46
2022/08/30 03:58:44;;;;;;;6.30;4.45;;;15.40;99.90;;;15.21;100.00;97438.50;4964009;28;20092;-47
2022/08/30 04:01:10;;;;;;;6.63;5.10;;;15.40;99.90;;;15.17;100.00;97439.63;4955205;28;20613;-43
2022/08/30 04:03:36;;;;;;;5.28;4.28;;;15.30;99.90;;;15.17;100.00;97447.59;4958538;28;20035;-45
2022/08/30 04:06:02;;;;;;;6.32;4.50;;;15.40;99.90;;;15.17;100.00;97442.28;4964711;28;20042;-47
2022/08/30 04:08:27;;;;;;;5.68;4.40;;;15.30;99.90;;;15.16;100.00;97434.38;4963643;28;20035;-47
2022/08/30 04:10:54;;;;;;;5.93;4.60;;;15.30;99.90;;;15.17;100.00;97434.31;4958936;28;20368;-47
2022/08/30 04:13:22;;;;;;;6.65;5.10;;;15.30;99.90;;;15.15;100.00;97443.31;4956694;28;20111;-46
2022/08/30 04:15:49;;;;;;;7.13;5.07;;;15.30;99.90;;;15.06;100.00;97429.56;4960090;28;20085;-47
2022/08/30 04:18:15;;;;;;;8.05;5.03;;;15.30;99.90;;;15.10;100.00;97438.22;4965545;28;20034;-47
2022/08/30 04:20:42;;;;;;;7.68;5.03;;;15.30;99.90;;;15.06;100.00;97436.69;4965388;28;20125;-45
2022/08/30 04:23:10;;;;;;;5.57;4.80;;;15.30;99.90;;;15.03;100.00;97445.66;4971484;28;20164;-47
2022/08/30 04:25:37;;;;;;;7.57;4.43;;;15.20;99.90;;;15.01;100.00;97447.56;4969611;28;20031;-43
2022/08/30 04:28:05;;;;;;;7.47;5.22;;;15.20;99.90;;;14.99;100.00;97454.75;4969069;28;20093;-47
2022/08/30 04:30:31;;;;;;;5.70;4.82;;;15.20;99.90;;;14.98;100.00;97442.41;4967838;28;20034;-46
2022/08/30 04:32:58;;;;;;;6.60;4.75;;;15.20;99.90;;;14.95;100.00;97445.25;4970636;28;20085;-46
2022/08/30 04:35:24;;;;;;;7.43;4.93;;;15.20;99.90;;;14.94;100.00;97453.28;4966238;28;20027;-46
2022/08/30 04:37:50;;;;;;;6.00;4.90;;;15.10;99.90;;;14.92;100.00;97450.72;4966888;28;21126;-47
2022/08/30 04:40:15;;;;;;;7.38;4.80;;;15.10;99.90;;;14.91;100.00;97451.63;4967327;28;20043;-45
2022/08/30 04:42:44;;;;;;;8.15;5.30;;;15.10;99.90;;;14.92;100.00;97442.75;4968401;28;20129;-43
2022/08/30 04:45:13;;;;;;;9.93;5.53;;;15.10;99.90;;;14.90;100.00;97452.59;4970857;28;20534;-44
2022/08/30 04:47:41;;;;;;;7.03;5.28;;;15.10;99.90;;;14.92;100.00;97449.88;4951610;28;20117;-43
2022/08/30 04:50:10;;;;;;;7.38;5.18;;;15.10;99.90;;;14.91;100.00;97454.28;4976475;28;20042;-46
2022/08/30 04:52:36;;;;;;;7.85;5.80;;;15.10;99.90;;;14.91;100.00;97456.94;4973834;28;20034;-45
2022/08/30 04:55:03;;;;;;;6.75;5.90;;;15.10;99.90;;;14.92;100.00;97460.47;4968790;28;20077;-46
2022/08/30 04:57:29;;;;;;;8.70;5.65;;;15.10;99.90;;;14.89;100.00;97449.09;4962971;28;20034;-44
2022/08/30 04:59:55;;;;;;;7.95;5.60;;;15.10;99.90;;;14.96;100.00;97462.88;4963182;28;20088;-44
2022/08/30 05:02:21;;;;;;;7.50;5.65;;;15.10;99.90;;;14.98;100.00;97463.66;4967611;28;21022;-45
2022/08/30 05:07:31;;;;;;;8.10;5.60;;;15.20;99.90;;;15.06;100.00;97485.34;4973313;28;20049;-43
2022/08/30 05:09:57;;;;;;;8.50;5.35;;;15.20;99.90;;;15.11;100.00;97476.25;4966874;28;20255;-46
2022/08/30 05:12:23;;;;;;;9.43;5.80;;;15.30;99.90;;;15.16;100.00;97482.19;4968544;28;20330;-44
2022/08/30 05:14:49;;;;;;;7.20;5.43;;;15.40;99.90;;;15.27;100.00;97485.13;4964445;28;20057;-45
2022/08/30 05:17:15;;;;;;;8.07;6.13;;;15.40;99.90;;;15.35;100.00;97488.22;4967396;28;20038;-43
2022/08/30 05:19:41;;;;;;;8.30;5.75;;;15.50;99.90;;;15.41;100.00;97479.06;4969317;28;20041;-44
2022/08/30 05:22:07;;;;;;;7.93;5.70;;;15.60;99.90;;;15.54;100.00;97487.19;4967232;28;20034;-43
2022/08/30 05:24:34;;;;;;;8.93;6.05;;;15.70;99.90;;;15.65;100.00;97495.47;4969372;28;20023;-45
2022/08/30 05:27:00;;;;;;;11.68;6.32;;;15.80;99.90;;;15.76;100.00;97493.06;4967471;28;20031;-44
2022/08/30 05:29:26;;;;;;;7.57;6.10;;;16.00;99.90;;;15.91;100.00;97496.66;4971781;28;20480;-43
2022/08/30 05:31:52;;;;;;;6.70;5.50;;;16.10;99.90;;;16.10;100.00;97495.63;4965690;28;20121;-46
2022/08/30 05:34:19;;;;;;;9.05;5.70;;;16.20;99.90;;;16.28;100.00;97485.72;4968925;28;20368;-43
2022/08/30 05:36:45;;;;;;;7.45;5.95;;;16.40;99.90;;;16.46;100.00;97487.28;4972635;28;20043;-46
2022/08/30 05:39:11;;;;;;;7.30;5.28;;;16.60;99.90;;;16.56;100.00;97482.25;4972422;28;20577;-45
2022/08/30 05:41:37;;;;;;;7.57;5.60;;;16.70;99.90;;;16.61;100.00;97475.69;4971647;28;20057;-43
2022/08/30 05:44:05;;;;;;;11.50;6.80;;;16.80;99.90;;;16.64;100.00;97484.47;4971590;28;20078;-45
2022/08/30 05:46:32;;;;;;;6.90;5.88;;;16.80;99.90;;;16.61;100.00;97485.50;4968268;28;20109;-45
2022/08/30 05:49:04;;;;;;;7.90;5.32;;;16.80;99.90;;;16.55;100.00;97481.41;4971694;28;20030;-44
2022/08/30 05:51:33;;;;;;;7.82;5.10;;;16.70;99.90;;;16.51;100.00;97482.53;4977931;28;20026;-46
2022/08/30 05:53:59;;;;;;;8.45;4.93;;;16.70;99.90;;;16.48;100.00;97480.06;4972261;28;20039;-46
2022/08/30 05:56:31;;;;;;;5.75;4.80;;;16.60;99.90;;;16.46;100.00;97475.78;4972924;28;20038;-44
2022/08/30 05:58:56;;;;;;;5.78;4.82;;;16.60;99.90;;;16.43;100.00;97479.47;4975657;28;20121;-44
2022/08/30 06:01:33;;;;;;;7.93;4.45;;;16.60;99.90;;;16.45;100.00;97484.72;4971798;28;20048;-43
2022/08/30 06:04:02;;;;;;;8.35;4.72;;;16.60;99.90;;;16.41;100.00;97487.53;4967835;28;20066;-45
2022/08/30 06:06:29;;;;;;;5.00;4.22;;;16.60;99.90;;;16.45;100.00;97493.53;4973146;28;20034;-46
2022/08/30 06:08:55;;;;;;;6.55;5.03;;;16.60;99.90;;;16.49;100.00;97491.56;4973598;28;20035;-45
2022/08/30 06:11:23;;;;;;;6.60;5.07;;;16.60;99.90;;;16.54;100.00;97490.31;4970917;28;20031;-43
2022/08/30 06:13:51;;;;;;;7.88;5.88;;;16.70;99.90;;;16.73;100.00;97499.91;4970210;28;20022;-43
2022/08/30 06:16:20;;;;;;;8.40;5.57;;;16.90;99.90;;;16.94;100.00;97501.28;4972895;28;20057;-46
2022/08/30 06:18:47;;;;;;;9.32;5.10;;;17.10;99.90;;;17.22;100.00;97493.41;4974075;28;20037;-45
2022/08/30 06:21:24;;;;;;;6.72;5.10;;;17.40;99.90;;;17.51;100.00;97502.22;4971308;28;20513;-44
2022/08/30 06:23:51;;;;;;;9.93;5.53;;;17.70;99.90;;;17.80;100.00;97503.03;4973233;28;20092;-47
2022/08/30 06:26:17;;;;;;;6.90;5.35;;;18.00;99.90;;;18.13;100.00;97500.00;4971112;28;20441;-46
2022/08/30 06:28:44;;;;;;;8.30;5.30;;;18.30;99.90;;;18.47;100.00;97505.75;4971975;28;20081;-45
2022/08/30 06:31:13;;;;;;;6.70;5.35;;;18.70;99.90;;;18.84;100.00;97513.09;4967578;28;20038;-46
2022/08/30 06:33:39;;;;;;;11.32;6.25;;;19.00;99.90;;;19.08;100.00;97502.56;4969729;28;20033;-45
2022/08/30 06:36:09;;;;;;;9.45;6.55;;;19.20;99.90;;;19.28;100.00;97498.47;4972225;28;20045;-47
2022/08/30 06:38:36;;;;;;;9.02;6.20;;;19.40;99.90;;;19.39;99.50;97487.00;4975079;28;20030;-45
2022/08/30 06:41:11;;;;;;;8.60;5.90;;;19.60;99.90;;;19.55;97.88;97494.81;4972411;28;20074;-47
2022/08/30 06:43:37;;;;;;;7.68;6.18;;;19.70;99.90;;;19.61;95.38;97495.22;4974575;28;20409;-43
2022/08/30 06:46:08;;;;;;;7.82;5.90;;;19.70;99.90;;;19.68;96.71;97503.63;4964375;28;20053;-43
2022/08/30 06:48:34;;;;;;;10.70;6.20;;;19.70;99.90;;;19.70;94.73;97493.66;4967069;28;22201;-42
2022/08/30 06:50:59;;;;;;;14.60;6.55;;;19.80;99.90;;;19.71;93.97;97498.06;4963649;28;20034;-45
2022/08/30 06:53:28;;;;;;;8.23;5.70;;;19.80;99.90;;;19.74;94.26;97499.69;4963718;28;20042;-43
2022/08/30 06:55:56;;;;;;;8.75;5.82;;;19.80;99.90;;;19.72;93.91;97498.91;4970798;28;20058;-43
2022/08/30 06:58:22;;;;;;;8.13;5.47;;;19.80;99.90;;;19.71;93.62;97494.56;4962840;28;20534;-45
2022/08/30 07:00:48;;;;;;;6.15;4.70;;;19.80;99.90;;;19.67;93.82;97488.56;4963268;28;20093;-46
2022/08/30 07:03:13;;;;;;;10.18;6.75;;;19.70;99.90;;;19.62;93.51;97493.41;4969058;28;20034;-43
2022/08/30 07:05:39;;;;;;;10.13;6.07;;;19.70;99.90;;;19.59;94.03;97494.44;4971481;28;20096;-46
2022/08/30 07:08:05;;;;;;;8.68;5.65;;;19.70;99.90;;;19.58;94.18;97492.75;4972586;28;20038;-43
2022/08/30 07:10:30;;;;;;;6.60;5.68;;;19.70;99.90;;;19.57;94.48;97499.06;4968920;28;20110;-46
2022/08/30 07:12:56;;;;;;;9.50;6.00;;;19.70;99.90;;;19.57;94.07;97496.38;4968854;28;20612;-47
2022/08/30 07:15:22;;;;;;;10.90;6.40;;;19.70;99.90;;;19.58;93.02;97495.44;4974680;28;20043;-42
2022/08/30 07:20:32;;;;;;;7.35;5.00;;;19.80;99.90;;;19.72;93.15;97496.25;4970926;28;20044;-44
2022/08/30 07:22:58;;;;;;;5.75;4.80;;;19.80;99.90;;;19.84;91.90;97496.22;4980560;28;20037;-46
2022/08/30 07:25:24;;;;;;;9.13;5.28;;;19.90;99.90;;;20.01;90.92;97508.41;4977549;28;20117;-44
2022/08/30 07:27:50;;;;;;;9.98;5.53;;;20.10;99.90;;;20.17;87.10;97508.13;4977119;28;20130;-45
2022/08/30 07:30:18;;;;;;;7.05;4.50;;;20.30;99.90;;;20.36;87.29;97507.59;4977503;28;20170;-44
2022/08/30 07:32:44;;;;;;;6.75;5.10;;;20.40;99.90;;;20.51;85.91;97507.41;4973788;28;20043;-42
2022/08/30 07:35:09;;;;;;;11.07;4.63;;;20.60;99.90;;;20.70;84.50;97506.91;4973666;28;20022;-47
2022/08/30 07:37:35;;;;;;;6.18;5.00;;;20.70;99.90;;;20.98;82.73;97509.16;4975898;28;20038;-40
2022/08/30 07:40:03;;;;;;;7.65;5.32;;;21.00;99.90;;;21.28;80.85;97521.16;4975476;28;20031;-39
2022/08/30 07:42:28;;;;;;;6.70;5.03;;;21.30;99.90;;;21.55;79.70;97511.91;4973063;28;20076;-38
2022/08/30 07:44:54;;;;;;;10.05;6.07;;;21.60;99.90;;;21.80;75.03;97521.50;4975862;28;20138;-39
2022/08/30 07:47:20;;;;;;;6.75;5.28;;;21.90;99.90;;;22.10;75.32;97512.78;4970653;28;20133;-39
2022/08/30 07:49:45;;;;;;;7.10;5.30;;;22.20;99.90;;;22.25;73.46;97510.69;4968678;28;20298;-39
2022/08/30 07:52:11;;;;;;;8.75;6.05;;;22.30;99.90;;;22.41;72.67;97514.81;4974528;28;20125;-39
2022/08/30 07:54:37;;;;;;;8.65;5.35;;;22.50;99.90;;;22.53;73.30;97516.47;4965033;28;20109;-39
2022/08/30 07:57:03;;;;;;;7.30;5.45;;;22.60;99.90;;;22.61;73.14;97513.13;4970496;28;20045;-39
2022/08/30 07:59:28;;;;;;;6.60;5.45;;;22.70;99.90;;;22.66;73.14;97514.44;4966586;28;20420;-39
2022/08/30 08:01:54;;;;;;;7.45;5.32;;;22.80;99.90;;;22.75;72.94;97510.13;4968877;28;20034;-39
2022/08/30 08:04:20;;;;;;;8.82;5.72;;;22.80;99.90;;;22.65;71.32;97512.75;4973853;28;20440;-39
2022/08/30 08:06:46;;;;;;;9.55;6.15;;;22.80;99.90;;;22.67;69.60;97509.94;4971507;28;20494;-39
2022/08/30 08:09:11;;;;;;;9.32;5.75;;;22.80;99.90;;;22.67;70.79;97515.31;4973515;28;20487;-38
2022/08/30 08:11:39;;;;;;;9.70;5.50;;;22.80;99.90;;;22.71;70.50;97500.63;4968627;28;20267;-39
2022/08/30 08:14:05;;;;;;;8.13;5.60;;;22.90;99.90;;;22.99;69.52;97511.72;4994533;23;21152;-49
2022/08/30 08:16:33;;;;;;;11.38;5.40;;;23.00;99.90;;;23.19;69.25;97512.72;4980249;28;20056;-50
2022/08/30 08:18:59;;;;;;;8.98;5.53;;;23.20;99.90;;;23.32;67.31;97520.59;4971229;28;20103;-52
2022/08/30 08:21:26;;;;;;;8.40;5.15;;;23.30;99.90;;;23.43;65.60;97521.31;4983093;28;20077;-52
2022/08/30 08:23:52;;;;;;;7.35;4.80;;;23.40;99.90;;;23.43;66.21;97521.31;4989492;28;20034;-52
2022/08/30 08:26:19;;;;;;;6.00;4.90;;;23.40;99.90;;;23.51;65.40;97525.19;4986571;28;20034;-47
2022/08/30 08:28:46;;;;;;;7.80;5.25;;;23.50;99.90;;;23.53;65.51;97517.84;4991437;28;20091;-47
2022/08/30 08:31:24;;;;;;;12.60;5.60;;;23.50;99.90;;;23.46;65.13;97516.69;4983769;28;20543;-47
2022/08/30 08:33:50;;;;;;;10.40;5.55;;;23.60;99.90;;;23.48;65.77;97512.88;4981627;28;20030;-48
2022/08/30 08:36:17;;;;;;;8.13;5.57;;;23.50;99.90;;;23.44;67.60;97501.50;4990486;28;20033;-49
2022/08/30 08:38:43;;;;;;;6.78;4.97;;;23.50;99.90;;;23.50;67.03;97518.13;4986910;28;20042;-47
2022/08/30 08:41:19;;;;;;;6.57;4.82;;;23.60;99.90;;;23.56;67.12;97518.44;4984177;28;20550;-49
2022/08/30 08:43:45;;;;;;;10.20;4.60;;;23.60;99.90;;;23.60;66.88;97509.09;4988181;28;20092;-48
2022/08/30 08:46:35;;;;;;;9.73;4.78;;;23.60;99.90;;;23.61;66.96;97507.25;4987065;28;20433;-47
2022/08/30 08:49:05;;;;;;;7.13;5.32;;;23.60;99.90;;;23.61;66.59;97510.78;4982445;28;20052;-48
2022/08/30 08:54:52;;;;;;;6.70;4.90;;;23.70;99.90;;;23.69;66.34;97510.13;4985083;28;20099;-48
2022/08/30 08:57:18;;;;;;;7.63;5.22;;;23.70;99.90;;;23.75;64.44;97509.56;4981733;28;20021;-48
2022/08/30 08:59:44;;;;;;;7.13;4.85;;;23.70;99.90;;;23.77;65.66;97507.59;4993045;28;20068;-48
2022/08/30 09:02:37;;;;;;;11.15;5.15;;;23.80;99.90;;;23.82;65.37;97510.75;4986320;28;20026;-47
2022/08/30 09:05:04;;;;;;;8.23;5.20;;;23.80;99.90;;;23.82;65.47;97501.84;4980163;28;20034;-47
2022/08/30 09:07:36;;;;;;;11.52;5.45;;;23.90;99.90;;;23.85;65.32;97506.94;4997503;28;20037;-49
2022/08/30 09:10:03;;;;;;;6.50;4.75;;;23.90;99.90;;;23.84;63.73;97507.94;4986036;28;20034;-50
2022/08/30 09:12:28;;;;;;;6.47;4.80;;;23.90;99.90;;;23.94;63.90;97513.31;4986443;28;20030;-48
2022/08/30 09:15:19;;;;;;;5.57;4.35;;;24.00;99.90;;;24.07;63.78;97507.72;4987508;28;20053;-49
2022/08/30 09:18:09;;;;;;;8.60;4.93;;;24.10;99.90;;;24.17;62.36;97492.38;4982147;28;20057;-49
2022/08/30 09:20:44;;;;;;;6.15;4.78;;;24.20;99.90;;;24.25;60.80;97497.94;4990402;28;20394;-47
2022/08/30 09:23:27;;;;;;;7.43;5.03;;;24.30;99.90;;;24.34;61.49;97496.25;4986656;28;20033;-45
2022/08/30 09:26:08;;;;;;;8.02;4.57;;;24.30;99.90;;;24.37;58.14;97499.53;4983231;28;20180;-47
2022/08/30 09:28:49;;;;;;;6.30;4.30;;;24.40;99.90;;;24.47;60.28;97491.41;4983869;28;20104;-46
2022/08/30 09:31:25;;;;;;;4.90;4.15;;;24.50;99.90;;;24.58;59.91;97485.06;4991053;28;20101;-47
2022/08/30 09:34:04;;;;;;;6.55;4.70;;;24.60;99.90;;;24.63;58.22;97482.78;4991579;28;20036;-46
2022/08/30 09:36:52;;;;;;;6.65;4.40;;;24.70;99.60;;;24.69;59.47;97481.38;4984347;28;20060;-48
2022/08/30 09:39:40;;;;;;;4.80;3.80;;;24.70;99.60;;;24.79;59.42;97471.44;4989417;28;20061;-45
2022/08/30 09:42:25;;;;;;;5.18;4.55;;;24.80;99.70;;;24.87;58.00;97476.97;4988084;28;20603;-46
2022/08/30 09:45:09;;;;;;;8.25;4.55;;;24.90;99.00;;;24.94;56.97;97477.22;4993360;28;20062;-45
2022/08/30 09:47:39;;;;;;;6.03;4.20;;;24.90;98.30;;;25.08;57.19;97471.34;4990488;28;20125;-49
2022/08/30 09:50:18;;;;;;;5.55;4.70;;;25.10;98.50;;;25.17;55.75;97466.94;4979396;28;20040;-48
2022/08/30 09:53:17;;;;;;;6.50;4.43;;;25.20;97.90;;;25.24;54.55;97476.19;4989155;28;20034;-45
2022/08/30 09:55:55;;;;;;;9.15;4.57;;;25.30;97.80;;;25.27;54.50;97473.19;4989884;28;20152;-48
2022/08/30 09:58:53;;;;;;;5.40;4.43;;;25.30;97.30;;;25.27;56.15;97457.00;4994512;28;20077;-47
2022/08/30 10:01:30;;;;;;;6.78;4.57;;;25.30;97.50;;;25.27;55.68;97457.00;4980493;28;20054;-45
2022/08/30 10:04:13;;;;;;;7.57;4.97;;;25.30;97.40;;;25.21;55.76;97454.00;4979373;28;20113;-45
2022/08/30 10:06:53;;;;;;;5.82;4.95;;;25.30;97.40;;;25.24;55.72;97451.88;5005170;28;20080;-45
2022/08/30 10:09:45;;;;;;;8.10;4.80;;;25.30;97.40;;;25.34;55.04;97452.72;4988098;28;20261;-49
2022/08/30 10:12:54;;;;;;;8.13;5.45;;;25.40;97.10;;;25.41;55.57;97457.50;4994341;28;20055;-45
2022/08/30 10:15:47;;;;;;;10.63;5.25;;;25.40;96.80;;;25.38;54.94;97453.25;4992496;28;20062;-45
2022/08/30 10:18:39;;;;;;;5.90;5.00;;;25.40;96.50;;;25.43;56.55;97455.50;4991442;28;20041;-47
2022/08/30 10:21:20;;;;;;;6.47;4.40;;;25.50;97.40;;;25.46;56.68;97447.13;4991405;28;20034;-47
2022/08/30 10:23:57;;;;;;;6.28;4.35;;;25.50;97.40;;;25.54;56.80;97444.53;4979768;28;20052;-46
2022/08/30 10:26:30;;;;;;;6.50;4.78;;;25.50;97.40;;;25.64;55.02;97441.75;4991526;28;20026;-45
2022/08/30 10:29:22;;;;;;;9.75;4.95;;;25.60;97.00;;;25.71;55.44;97438.31;4994760;28;20132;-48
2022/08/30 10:31:55;;;;;;;5.50;4.75;;;25.70;96.70;;;25.72;52.19;97433.78;4990517;28;20026;-50
2022/08/30 10:34:31;;;;;;;6.78;4.88;;;25.70;95.70;;;25.77;50.52;97425.19;4984669;28;20129;-48